Steptoe Valley North, Nevada Weather observations

Data are for 10 minute period ending at time listed.
 Day   Time   Solar   Ave.   Ave.  Ave.  Vector  Max.   Baro.   Total    
  of    of     Rad.   Air    Rel.  Wind   Wind   Wind  Press.  Precip.   
Year   Day            Temp.  Hum.  Speed  Dir.   Gust                    
2014   (PST)  Kw/m2    F      %     mph   deg.    mph    mb.     in.     
-------------------------------------------------------------------------
 243   11:00   0.95   70.8    28    9.1   150    16.3   821.6    0.00 
 243   11:10   0.97   72.6    23    7.6   206    13.1   821.6    0.00 
 243   11:20   0.97   73.4    22    7.1   163    13.5   821.5    0.00 
 243   11:30   0.96   73.4    24    4.4   183    10.9   821.4    0.00 
 243   11:40   0.97   73.1    23    9.9   244    18.8   821.3    0.00 
 243   11:50   0.97   72.6    22    7.0   261    15.0   821.3    0.00 
 243   12:00   0.95   72.9    22    8.8   244    14.9   821.3    0.00 
 243   12:10   0.94   73.1    24    8.5   248    14.5   821.2    0.00 
 243   12:20   0.92   73.5    24    4.2   224     7.5   821.2    0.00 
 243   12:30   0.86   72.5    28    6.5   282    12.0   821.2    0.00 
 243   12:40   0.91   72.5    26    3.9   254    11.6   821.2    0.00 
 243   12:50   0.91   74.3    24    6.4   240    12.9   821.1    0.00 
 243   13:00   0.86   74.2    25    5.0   251    10.6   821.0    0.00 
 243   13:10   0.82   73.7    25    2.7   336     7.2   820.8    0.00 
 243   13:20   0.80   73.7    23    4.6   274    13.7   820.7    0.00 
 243   13:30   0.80   75.7    19   10.6   238    17.6   820.6    0.00 
 243   13:40   0.79   75.9    19   10.1   237    22.6   820.5    0.00 
 243   13:50   0.77   75.7    20   10.3   248    18.8   820.4    0.00 
 243   14:00   0.74   74.4    21    6.5   275    12.9   820.4    0.00 
 243   14:10   0.72   75.0    21    9.8   258    19.6   820.3    0.00 
 243   14:20   0.70   74.4    23    6.2   296    16.1   820.3    0.00 
 243   14:30   0.68   75.8    22   10.0   255    16.7   820.2    0.00 
 243   14:40   0.65   76.1    21    5.9   248    13.6   820.1    0.00 
 243   14:50   100.00  99999.0   99999  99999.0   99999   99999.0   99999.0   99999.00 
 243   15:00   0.61   76.4    20    8.4   234    14.8   820.0    0.00 
 243   15:10   0.58   76.4    19   10.6   231    17.4   819.9    0.00 
 243   15:20   0.54   75.4    22    8.8   270    14.8   819.9    0.00 
 243   15:30   0.51   75.1    21    7.8   251    22.8   819.9    0.00 
 243   15:40   0.46   75.3    22    7.6   269    12.5   819.9    0.00 
 243   15:50   0.43   74.5    25    7.3   279    11.8   819.9    0.00 
 243   16:00   0.40   74.1    26    7.0   286    13.3   819.9    0.00 
 243   16:10   0.37   73.7    25    9.6   280    16.6   819.9    0.00 
 243   16:20   0.33   74.1    23    7.9   266    12.5   819.9    0.00 
 243   16:30   0.29   74.6    22    7.3   267    11.9   819.8    0.00 
 243   16:40   0.25   73.5    26    5.5   287    10.9   819.8    0.00 
 243   16:50   0.22   72.4    28    7.9   291    15.5   819.8    0.00 
 243   17:00   0.19   72.2    26    7.2   278    11.8   819.8    0.00 
 243   17:10   0.16   72.6    24    4.7   265     7.0   819.8    0.00 
 243   17:20   0.13   71.6    28    4.7   305     8.0   819.8    0.00 
 243   17:30   0.10   69.6    32    4.8   304     7.3   819.8    0.00 
 243   17:40   0.07   68.2    32    4.9   280     6.4   819.8    0.00 
 243   17:50   0.04   68.5    29    3.8   280     5.0   819.8    0.00 
 243   18:00   0.02   68.5    28    3.6   293     4.7   819.7    0.00 
 243   18:10   0.01   63.2    46    4.3   332     5.8   819.7    0.00 
 243   18:20   0.01   59.1    53    4.7   350     6.6   819.7    0.00 
 243   18:30   0.00   57.9    51    4.8     4     6.2   819.7    0.00 
 243   18:40   0.00   56.1    55    4.1   354     5.8   819.6    0.00 
 243   18:50   0.00   56.5    53    3.8   354     4.4   819.6    0.00 
 243   19:00   0.00   54.9    57    3.6    70     5.7   819.6    0.00 
 243   19:10   0.00   56.6    49    2.9    64     4.7   819.7    0.00 
 243   19:20   0.00   59.1    41    2.6    41     4.8   819.9    0.00 
 243   19:30   0.00   58.3    44    3.3   348     5.4   819.9    0.00 
 243   19:40   0.00   56.5    48    3.5    28     5.4   820.0    0.00 
 243   19:50   0.00   54.9    50    3.6    87     6.1   820.1    0.00 
 243   20:00   0.00   57.0    45    3.7    77     7.8   820.1    0.00 
 243   20:10   0.00   57.2    44    3.8    52     5.2   820.1    0.00 
 243   20:20   0.00   57.3    44    3.0    58     5.0   820.3    0.00 
 243   20:30   0.00   56.9    44    2.7    29     3.7   820.3    0.00 
 243   20:40   0.00   54.8    49    3.8    37     5.4   820.3    0.00 
 243   20:50   0.00   54.8    47    3.1    38     4.9   820.3    0.00 
 243   21:00   0.00   52.2    54    3.7    52     4.9   820.2    0.00 
 243   21:10   0.00   51.5    53    4.9    74     6.6   820.2    0.00 
 243   21:20   0.00   51.7    54    5.2    88     7.3   820.2    0.00 
 243   21:30   0.00   50.6    59    3.3    70     5.1   820.3    0.00 
 243   21:40   0.00   51.5    55    3.5    67     4.2   820.4    0.00 
 243   21:50   0.00   50.8    58    2.9    47     4.7   820.4    0.00 
 243   22:00   0.00   47.0    69    3.6    25     5.8   820.4    0.00 
 243   22:10   0.00   45.4    74    3.8    48     4.5   820.4    0.00 
 243   22:20   0.00   45.3    73    2.2    30     4.2   820.4    0.00 
 243   22:30   0.00   45.7    70    2.8    70     5.0   820.4    0.00 
 243   22:40   0.00   46.5    65    2.3   100     4.2   820.4    0.00 
 243   22:50   0.00   47.2    64    0.8    63     3.2   820.5    0.00 
 243   23:00   0.00   45.8    68    0.7     4     2.9   820.7    0.00 
 243   23:10   0.00   44.4    72    0.1   343     0.9   820.8    0.00 
 243   23:20   0.00   44.6    73    0.4    63     2.6   820.9    0.00 
 243   23:30   0.00   44.4    71    1.0   152     4.2   821.0    0.00 
 243   23:40   0.00   42.9    76    1.3   176     5.2   821.1    0.00 
 243   23:50   0.00   43.7    76    0.4   326     4.5   821.2    0.00 
 244    0:00   0.00   42.3    79    1.0   261     5.0   821.2    0.00 
 244    0:10   0.00   41.2    82    0.3   303     1.3   821.3    0.00 
 244    0:20   0.00   40.1    85    0.7     1     2.2   821.4    0.00 
 244    0:30   0.00   40.9    83    0.5    74     2.1   821.4    0.00 
 244    0:40   0.00   40.4    82    2.6   126     3.4   821.3    0.00 
 244    0:50   0.00   41.3    81    2.2   127     3.0   821.4    0.00 
 244    1:00   0.00   40.8    79    2.4   153     3.4   821.3    0.00 
 244    1:10   0.00   40.8    76    1.5   161     3.1   821.4    0.00 
 244    1:20   0.00   41.8    73    0.6   173     1.7   821.4    0.00 
 244    1:30   0.00   42.5    73    1.1   158     2.0   821.4    0.00 
 244    1:40   0.00   40.3    78    2.2    90     3.6   821.5    0.00 
 244    1:50   0.00   38.2    84    2.6    96     5.0   821.5    0.00 
 244    2:00   0.00   37.2    87    1.6    60     2.6   821.5    0.00 
 244    2:10   0.00   37.6    87    0.6    72     4.0   821.6    0.00 
 244    2:20   0.00   37.1    86    2.6    49     4.9   821.6    0.00 
 244    2:30   0.00   38.7    82    2.1    54     2.9   821.6    0.00 
 244    2:40   0.00   37.1    84    3.3    78     5.1   821.6    0.00 
 244    2:50   0.00   36.5    86    1.9    73     4.4   821.6    0.00 
 244    3:00   0.00   37.1    85    1.1    86     2.7   821.6    0.00 
 244    3:10   0.00   35.7    87    1.4    43     2.6   821.7    0.00 
 244    3:20   0.00   35.7    88    0.7   348     2.7   821.7    0.00 
 244    3:30   0.00   35.1    88    1.2   132     3.1   821.8    0.00 
 244    3:40   0.00   34.9    89    1.5   127     2.5   821.8    0.00 
 244    3:50   0.00   35.8    89    2.5    99     3.9   821.9    0.00 
 244    4:00   0.00   35.6    88    2.1    51     3.4   822.0    0.00 
 244    4:10   0.00   34.9    89    2.2    49     3.6   822.0    0.00 
 244    4:20   0.00   34.8    89    1.2    53     3.7   822.2    0.00 
 244    4:30   0.00   35.5    88    2.6     8     8.1   822.2    0.00 
 244    4:40   0.00   36.4    86    3.1   358     8.0   822.3    0.00 
 244    4:50   0.00   36.4    86    0.8   309     3.4   822.4    0.00 
 244    5:00   0.00   35.2    86    1.1   275     3.1   822.5    0.00 
 244    5:10   0.01   35.2    88    0.4   291     1.5   822.5    0.00 
 244    5:20   0.01   35.6    87    0.7   217     2.8   822.6    0.00 
 244    5:30   0.03   35.5    86    2.3   165     3.1   822.7    0.00 
 244    5:40   0.06   36.0    87    1.2   225     3.3   822.8    0.00 
 244    5:50   0.09   37.6    87    0.6   224     2.0   822.8    0.00 
 244    6:00   0.12   40.2    86    0.3   208     1.6   822.9    0.00 
 244    6:10   0.16   42.5    80    1.2   183     2.5   822.9    0.00 
 244    6:20   0.19   44.5    77    0.9   324     2.1   823.0    0.00 
 244    6:30   0.23   45.0    77    1.4   340     2.6   823.1    0.00 
 244    6:40   0.27   45.5    80    1.9   353     2.6   823.1    0.00 
 244    6:50   0.31   46.5    79    2.4   338     3.9   823.1    0.00 
 244    7:00   0.35   48.6    76    2.0   348     3.0   823.1    0.00 
 244    7:10   0.39   50.6    73    1.4   351     2.6   823.0    0.00 
 244    7:20   0.43   53.1    67    1.0   348     2.0   822.9    0.00 
 244    7:30   0.47   55.3    59    1.2   324     2.7   822.9    0.00 
 244    7:40   0.50   56.8    53    1.4   309     2.8   822.9    0.00 
 244    7:50   0.54   58.0    48    1.4   341     2.7   823.0    0.00 
 244    8:00   0.58   59.2    50    1.5   345     3.1   823.1    0.00 
 244    8:10   0.61   59.6    52    1.7     4     3.1   823.3    0.00 
 244    8:20   0.65   60.7    46    1.1     6     2.6   823.5    0.00 
 244    8:30   0.68   61.8    44    1.8    29     3.3   823.6    0.00 
 244    8:40   0.71   62.9    43    1.2    34     3.4   823.6    0.00 
 244    8:50   0.73   65.6    39    0.7   295     2.6   823.7    0.00 
 244    9:00   0.75   65.7    38    2.4    18     3.8   823.8    0.00 
 244    9:10   0.78   65.9    38    1.9    10     3.8   823.8    0.00 
 244    9:20   0.80   66.6    36    2.3   359     4.2   823.8    0.00 
 244    9:30   0.81   66.8    36    2.7    11     4.9   823.7    0.00 
 244    9:40   0.83   67.7    34    2.6    29     4.5   823.6    0.00 
 244    9:50   0.84   69.5    34    1.7   321     3.9   823.7    0.00 
 244   10:00   0.83   70.1    31    2.2   335     5.0   823.6    0.00 
 244   10:10   0.84   70.3    30    2.5   316     4.7   823.5    0.00 
 244   10:20   0.86   73.0    24    2.1   158     4.5   823.4    0.00 
 244   10:30   0.87   73.3    26    2.6   251     6.3   823.4    0.00 
 244   10:40   0.88   73.8    25    2.3   232     5.2   823.3    0.00 
 244   10:50   0.88   73.0    34    3.9    12     7.9   823.2    0.00 

Return to Steptoe Valley North graphs page.


Western Regional Climate Center,wrcc@dri.edu